createdAt,value
2023-03-02T00:00:44.766Z,23.87
2023-03-02T00:01:44.814Z,23.88
2023-03-02T00:02:44.967Z,23.88
2023-03-02T00:03:45.152Z,23.89
2023-03-02T00:04:44.999Z,23.90
2023-03-02T00:05:45.080Z,23.90
2023-03-02T00:06:45.097Z,23.90
2023-03-02T00:07:45.190Z,23.90
2023-03-02T00:08:45.234Z,23.90
2023-03-02T00:09:45.300Z,23.89
2023-03-02T00:27:46.316Z,23.88
2023-03-02T00:28:46.346Z,23.88
2023-03-02T00:29:46.397Z,23.88
2023-03-02T00:30:46.455Z,23.89
2023-03-02T00:31:46.568Z,23.90
2023-03-02T00:32:46.591Z,23.90
2023-03-02T00:33:46.643Z,23.89
2023-03-02T00:34:46.672Z,23.91
2023-03-02T00:35:47.145Z,23.93
2023-03-02T00:36:47.095Z,23.95
2023-03-02T00:37:46.768Z,23.97
2023-03-02T00:38:46.781Z,24.00
2023-03-02T00:39:46.848Z,24.00
2023-03-02T00:40:46.857Z,24.02
2023-03-02T00:41:46.867Z,24.04
2023-03-02T00:42:46.888Z,24.08
2023-03-02T00:43:46.943Z,24.11
2023-03-02T00:44:46.966Z,24.14
2023-03-02T00:45:46.974Z,24.17
2023-03-02T00:46:47.121Z,24.20
2023-03-02T00:47:47.032Z,24.22
2023-03-02T00:48:47.087Z,24.25
2023-03-02T00:49:47.117Z,24.29
2023-03-02T00:50:47.117Z,24.32
2023-03-02T00:51:47.144Z,24.32
2023-03-02T00:52:47.182Z,24.35
2023-03-02T00:53:47.157Z,24.38
2023-03-02T00:54:47.207Z,24.40
2023-03-02T00:55:47.194Z,24.42
2023-03-02T00:56:47.209Z,24.43
2023-03-02T00:57:47.221Z,24.45
2023-03-02T00:58:47.208Z,24.47
2023-03-02T00:59:47.180Z,24.50
2023-03-02T01:00:47.218Z,24.51
2023-03-02T01:01:47.189Z,24.53
2023-03-02T01:02:47.427Z,24.53
2023-03-02T01:03:47.270Z,24.55
2023-03-02T01:04:47.331Z,24.57
2023-03-02T01:05:47.338Z,24.58
2023-03-02T01:06:47.398Z,24.60
2023-03-02T01:07:47.457Z,24.61
2023-03-02T01:08:47.518Z,24.62
2023-03-02T01:09:47.605Z,24.64
2023-03-02T01:10:47.649Z,24.64
2023-03-02T01:11:47.717Z,24.65
2023-03-02T01:12:47.761Z,24.66
2023-03-02T01:13:47.843Z,24.67
2023-03-02T01:14:47.892Z,24.67
2023-03-02T01:15:47.990Z,24.69
2023-03-02T01:16:47.966Z,24.69
2023-03-02T01:17:48.037Z,24.70
2023-03-02T01:18:48.102Z,24.70
2023-03-02T01:19:48.191Z,24.71
2023-03-02T01:20:48.215Z,24.73
2023-03-02T01:21:48.261Z,24.75
2023-03-02T01:22:48.310Z,24.75
2023-03-02T01:23:48.356Z,24.76
2023-03-02T01:24:48.547Z,24.77
2023-03-02T01:25:48.458Z,24.77
2023-03-02T01:26:48.503Z,24.77
2023-03-02T01:27:48.554Z,24.78
2023-03-02T01:28:50.000Z,24.79
2023-03-02T01:29:48.617Z,24.79
2023-03-02T01:30:48.675Z,24.80
2023-03-02T01:31:48.794Z,24.80
2023-03-02T01:32:48.713Z,24.81
2023-03-02T01:33:48.749Z,24.81
2023-03-02T01:34:48.881Z,24.82
2023-03-02T01:35:48.921Z,24.82
2023-03-02T01:36:48.933Z,24.83
2023-03-02T01:37:48.947Z,24.83
2023-03-02T01:38:49.047Z,24.83
2023-03-02T01:39:49.076Z,24.84
2023-03-02T01:40:49.111Z,24.84
2023-03-02T01:41:49.161Z,24.85
2023-03-02T01:42:49.160Z,24.86
2023-03-02T01:43:49.239Z,24.88
2023-03-02T01:44:49.283Z,24.89
2023-03-02T01:45:49.414Z,24.89
2023-03-02T01:46:49.353Z,24.89
2023-03-02T01:47:49.409Z,24.90
2023-03-02T01:48:49.421Z,24.92
2023-03-02T01:49:49.492Z,24.92
2023-03-02T01:50:49.485Z,24.93
2023-03-02T01:51:49.572Z,24.94
2023-03-02T01:52:49.624Z,24.94
2023-03-02T01:53:49.605Z,24.95
2023-03-02T01:54:49.636Z,24.97
2023-03-02T01:55:49.728Z,24.96
2023-03-02T01:56:49.731Z,24.96
2023-03-02T01:57:49.792Z,24.97
2023-03-02T01:58:49.798Z,24.97
2023-03-02T01:59:49.863Z,24.97
2023-03-02T02:00:49.961Z,24.97
2023-03-02T02:01:49.968Z,24.98
2023-03-02T02:02:49.975Z,24.98
2023-03-02T02:03:50.091Z,24.98
2023-03-02T02:04:50.078Z,24.99
2023-03-02T02:05:50.093Z,24.98
2023-03-02T02:06:50.134Z,24.98
2023-03-02T02:07:50.190Z,24.98
2023-03-02T02:08:50.225Z,24.99
2023-03-02T02:09:50.238Z,24.99
2023-03-02T02:10:50.287Z,24.99
2023-03-02T02:11:50.300Z,25.01
2023-03-02T02:12:50.339Z,25.01
2023-03-02T02:13:50.358Z,25.01
2023-03-02T02:14:50.401Z,25.02
2023-03-02T02:15:50.426Z,25.01
2023-03-02T02:16:50.549Z,25.02
2023-03-02T02:17:50.498Z,25.03
2023-03-02T02:18:50.510Z,25.03
2023-03-02T02:19:50.525Z,25.03
2023-03-02T02:20:50.615Z,25.04
2023-03-02T02:21:50.593Z,25.05
2023-03-02T02:22:50.648Z,25.06
2023-03-02T02:23:50.631Z,25.05
2023-03-02T02:24:50.703Z,25.06
2023-03-02T02:25:50.753Z,25.06
2023-03-02T02:26:50.755Z,25.06
2023-03-02T02:27:50.788Z,25.07
2023-03-02T02:28:50.829Z,25.07
2023-03-02T02:29:50.885Z,25.08
2023-03-02T02:30:50.855Z,25.08
2023-03-02T02:31:50.962Z,25.07
2023-03-02T02:32:51.007Z,25.08
2023-03-02T02:33:50.960Z,25.09
2023-03-02T02:34:50.979Z,25.09
2023-03-02T02:35:51.025Z,25.10
2023-03-02T02:36:51.015Z,25.10
2023-03-02T02:37:51.039Z,25.10
2023-03-02T02:38:51.032Z,25.10
2023-03-02T02:39:51.100Z,25.11
2023-03-02T02:40:51.118Z,25.12
2023-03-02T02:41:51.098Z,25.12
2023-03-02T02:42:51.110Z,25.12
2023-03-02T02:43:51.103Z,25.12
2023-03-02T02:44:51.134Z,25.13
2023-03-02T02:45:51.178Z,25.13
2023-03-02T02:46:51.214Z,25.13
2023-03-02T02:47:51.212Z,25.14
2023-03-02T02:48:51.183Z,25.14
2023-03-02T02:49:51.223Z,25.13
2023-03-02T02:50:51.248Z,25.15
2023-03-02T02:51:51.259Z,25.15
2023-03-02T02:52:51.256Z,25.16
2023-03-02T02:53:51.246Z,25.16
2023-03-02T02:54:51.255Z,25.15
2023-03-02T02:55:51.324Z,25.16
2023-03-02T02:56:51.271Z,25.16
2023-03-02T02:57:51.332Z,25.16
2023-03-02T02:58:51.312Z,25.18
2023-03-02T02:59:51.314Z,25.17
2023-03-02T03:00:51.429Z,25.17
2023-03-02T03:01:51.368Z,25.17
2023-03-02T03:02:51.369Z,25.18
2023-03-02T03:03:51.392Z,25.18
2023-03-02T03:04:51.394Z,25.19
2023-03-02T03:05:51.385Z,25.20
2023-03-02T03:06:51.391Z,25.21
2023-03-02T03:07:51.398Z,25.22
2023-03-02T03:08:51.465Z,25.20
2023-03-02T03:09:51.484Z,25.20
2023-03-02T03:10:51.481Z,25.20
2023-03-02T03:11:51.477Z,25.21
2023-03-02T03:12:51.502Z,25.22
2023-03-02T03:13:51.520Z,25.22
2023-03-02T03:14:51.551Z,25.23
2023-03-02T03:15:51.559Z,25.23
2023-03-02T03:16:51.598Z,25.23
2023-03-02T03:17:51.552Z,25.24
2023-03-02T03:18:51.563Z,25.23
2023-03-02T03:28:51.544Z,25.22
2023-03-02T03:29:51.595Z,25.22
2023-03-02T03:30:51.627Z,25.21
2023-03-02T03:31:51.628Z,25.21
2023-03-02T03:32:51.619Z,25.21
2023-03-02T03:33:51.615Z,25.21
2023-03-02T03:34:51.625Z,25.21
2023-03-02T03:35:51.697Z,25.20
2023-03-02T03:36:51.644Z,25.20
2023-03-02T03:37:51.660Z,25.20
2023-03-02T03:38:51.694Z,25.20
2023-03-02T03:39:51.696Z,25.20
2023-03-02T03:40:51.728Z,25.19
2023-03-02T03:41:51.720Z,25.18
2023-03-02T03:42:51.764Z,25.18
2023-03-02T03:43:51.760Z,25.18
2023-03-02T03:44:51.794Z,25.17
2023-03-02T03:45:51.983Z,25.17
2023-03-02T03:46:51.851Z,25.16
2023-03-02T03:47:51.846Z,25.16
2023-03-02T03:48:51.898Z,25.15
2023-03-02T03:49:51.958Z,25.15
2023-03-02T03:50:51.940Z,25.15
2023-03-02T03:51:51.943Z,25.13
2023-03-02T03:52:51.972Z,25.12
2023-03-02T03:53:51.972Z,25.12
2023-03-02T03:54:52.028Z,25.13
2023-03-02T03:55:52.033Z,25.12
2023-03-02T03:56:52.024Z,25.12
2023-03-02T03:57:52.079Z,25.12
2023-03-02T03:58:52.144Z,25.11
2023-03-02T03:59:52.139Z,25.12
2023-03-02T04:00:52.162Z,25.11
2023-03-02T04:01:52.245Z,25.11
2023-03-02T04:02:52.260Z,25.11
2023-03-02T04:03:52.273Z,25.12
2023-03-02T04:04:52.305Z,25.11
2023-03-02T04:05:52.351Z,25.11
2023-03-02T04:06:52.366Z,25.11
2023-03-02T04:07:52.419Z,25.10
2023-03-02T04:08:52.467Z,25.10
2023-03-02T04:09:52.534Z,25.10
2023-03-02T04:10:52.539Z,25.10
2023-03-02T04:11:52.619Z,25.09
2023-03-02T04:12:52.639Z,25.09
2023-03-02T04:13:52.682Z,25.09
2023-03-02T04:14:52.714Z,25.08
2023-03-02T04:15:52.811Z,25.06
2023-03-02T04:16:52.801Z,25.07
2023-03-02T04:17:52.836Z,25.07
2023-03-02T04:18:52.888Z,25.05
2023-03-02T04:19:52.955Z,25.06
2023-03-02T04:20:52.952Z,25.06
2023-03-02T04:21:53.000Z,25.06
2023-03-02T04:22:53.080Z,25.04
2023-03-02T04:23:53.088Z,25.04
2023-03-02T04:24:53.144Z,25.03
2023-03-02T04:25:53.200Z,25.04
2023-03-02T04:26:53.247Z,25.03
2023-03-02T04:27:53.327Z,25.04
2023-03-02T04:28:53.366Z,25.04
2023-03-02T04:29:53.420Z,25.04
2023-03-02T04:30:53.484Z,25.04
2023-03-02T04:31:53.536Z,25.04
2023-03-02T04:32:53.573Z,25.02
2023-03-02T04:33:53.629Z,25.03
2023-03-02T04:34:53.680Z,25.02
2023-03-02T04:35:53.736Z,24.99
2023-03-02T04:36:53.731Z,24.98
2023-03-02T04:37:53.785Z,24.99
2023-03-02T04:38:53.809Z,24.99
2023-03-02T04:39:53.885Z,24.99
2023-03-02T04:40:53.883Z,24.99
2023-03-02T04:41:53.950Z,24.98
2023-03-02T04:42:54.013Z,24.97
2023-03-02T04:43:54.056Z,24.98
2023-03-02T04:44:54.081Z,24.98
2023-03-02T04:45:54.169Z,24.98
2023-03-02T04:46:54.293Z,24.97
2023-03-02T04:47:54.255Z,24.98
2023-03-02T04:48:54.315Z,24.98
2023-03-02T04:49:54.384Z,24.97
2023-03-02T04:50:54.412Z,24.98
2023-03-02T04:51:54.452Z,24.97
2023-03-02T04:52:54.572Z,24.96
2023-03-02T04:53:54.579Z,24.96
2023-03-02T04:54:54.681Z,24.97
2023-03-02T04:55:54.655Z,24.97
2023-03-02T04:56:54.762Z,24.98
2023-03-02T04:57:54.785Z,24.99
2023-03-02T04:58:54.809Z,25.00
2023-03-02T04:59:54.887Z,24.99
2023-03-02T05:00:54.883Z,25.00
2023-03-02T05:01:55.044Z,24.99
2023-03-02T05:02:54.980Z,24.99
2023-03-02T05:03:55.076Z,25.00
2023-03-02T05:04:55.279Z,24.99
2023-03-02T05:05:55.116Z,24.98
2023-03-02T05:06:55.187Z,24.99
2023-03-02T05:07:55.215Z,25.00
2023-03-02T05:08:55.244Z,25.00
2023-03-02T05:09:55.298Z,25.00
2023-03-02T05:10:55.366Z,25.01
2023-03-02T05:11:55.380Z,25.00
2023-03-02T05:12:55.410Z,25.00
2023-03-02T05:13:55.462Z,24.99
2023-03-02T05:14:55.496Z,25.00
2023-03-02T05:15:55.550Z,24.99
2023-03-02T05:16:55.609Z,25.00
2023-03-02T05:17:55.617Z,25.00
2023-03-02T05:18:55.672Z,25.00
2023-03-02T05:19:55.716Z,25.00
2023-03-02T05:20:55.807Z,25.01
2023-03-02T05:21:55.786Z,25.00
2023-03-02T05:22:55.864Z,25.01
2023-03-02T05:23:55.880Z,25.01
2023-03-02T05:24:56.010Z,25.00
2023-03-02T05:25:55.984Z,25.01
2023-03-02T05:26:56.035Z,25.02
2023-03-02T05:27:56.069Z,25.02
2023-03-02T05:28:56.101Z,25.02
2023-03-02T05:29:56.148Z,25.02
2023-03-02T05:30:56.175Z,25.02
2023-03-02T05:31:56.324Z,25.02
2023-03-02T05:32:56.264Z,25.02
2023-03-02T05:33:56.300Z,25.01
2023-03-02T05:34:56.364Z,25.01
2023-03-02T05:35:56.464Z,25.03
2023-03-02T05:36:56.430Z,25.02
2023-03-02T05:37:56.467Z,25.02
2023-03-02T05:38:56.574Z,25.02
2023-03-02T05:39:56.566Z,25.00
2023-03-02T05:40:56.599Z,25.02
2023-03-02T05:41:56.631Z,25.02
2023-03-02T05:42:56.695Z,25.02
2023-03-02T05:43:56.724Z,25.00
2023-03-02T05:44:56.754Z,25.01
2023-03-02T05:45:56.798Z,25.01
2023-03-02T05:46:56.923Z,25.00
2023-03-02T05:47:56.907Z,25.00
2023-03-02T05:48:56.993Z,25.01
2023-03-02T05:49:56.999Z,25.00
2023-03-02T05:50:57.039Z,25.01
2023-03-02T06:01:04.483Z,25.00
2023-03-02T06:01:57.540Z,25.00
2023-03-02T06:02:57.516Z,25.00
2023-03-02T06:03:57.443Z,25.01
2023-03-02T06:04:57.418Z,25.00
2023-03-02T06:05:57.399Z,25.01
2023-03-02T06:06:57.405Z,25.01
2023-03-02T06:07:57.397Z,25.00
2023-03-02T06:08:57.373Z,25.01
2023-03-02T06:09:57.338Z,25.01
2023-03-02T06:10:57.331Z,25.02
2023-03-02T06:11:57.292Z,25.02
2023-03-02T06:12:57.300Z,25.02
2023-03-02T06:13:57.269Z,25.01
2023-03-02T06:14:57.245Z,24.99
2023-03-02T06:15:57.273Z,24.98
2023-03-02T06:16:57.284Z,24.96
2023-03-02T06:17:57.170Z,24.97
2023-03-02T06:18:57.173Z,24.96
2023-03-02T06:19:57.174Z,24.96
2023-03-02T06:20:57.155Z,24.97
2023-03-02T06:21:57.078Z,24.98
2023-03-02T06:22:57.092Z,24.97
2023-03-02T06:23:57.054Z,24.96
2023-03-02T06:24:57.074Z,24.95
2023-03-02T06:25:57.074Z,24.97
2023-03-02T06:26:57.167Z,24.96
2023-03-02T06:27:57.210Z,24.98
2023-03-02T06:28:57.266Z,25.00
2023-03-02T06:29:57.310Z,24.99
2023-03-02T06:46:05.591Z,23.97
2023-03-02T06:46:58.021Z,23.93
2023-03-02T06:50:58.296Z,24.00
2023-03-02T06:51:58.044Z,24.02
2023-03-02T06:53:58.073Z,24.03
2023-03-02T06:55:58.116Z,24.03
2023-03-02T06:56:58.132Z,24.04
2023-03-02T06:58:59.806Z,24.03
2023-03-02T06:59:58.113Z,24.01
2023-03-02T07:00:58.316Z,24.00
2023-03-02T07:01:58.158Z,24.01
2023-03-02T07:02:58.137Z,24.00
2023-03-02T07:03:58.161Z,24.00
2023-03-02T07:05:58.123Z,23.97
2023-03-02T07:06:59.106Z,23.98
2023-03-02T07:07:58.124Z,23.99
2023-03-02T07:08:58.185Z,24.01
2023-03-02T07:09:58.057Z,24.01
2023-03-02T07:10:58.098Z,24.02
2023-03-02T07:11:58.086Z,24.00
2023-03-02T07:12:58.028Z,24.03
2023-03-02T07:13:58.148Z,24.04
2023-03-02T07:14:58.158Z,24.03
2023-03-02T07:15:58.152Z,24.03
2023-03-02T07:16:58.242Z,24.03
2023-03-02T07:17:58.238Z,24.03
2023-03-02T07:18:58.746Z,24.02
2023-03-02T07:19:58.363Z,24.00
2023-03-02T07:20:58.776Z,24.01
2023-03-02T07:21:58.467Z,24.00
2023-03-02T07:22:58.407Z,24.01
2023-03-02T07:23:58.451Z,24.03
2023-03-02T07:24:58.451Z,24.02
2023-03-02T07:25:58.748Z,24.02
2023-03-02T07:26:58.522Z,24.00
2023-03-02T07:27:58.540Z,23.96
2023-03-02T07:28:58.577Z,23.91
2023-03-02T07:29:58.558Z,23.92
2023-03-02T07:30:58.656Z,23.94
2023-03-02T07:31:58.620Z,23.97
2023-03-02T07:32:58.717Z,24.00
2023-03-02T07:33:58.740Z,24.04
2023-03-02T07:34:58.774Z,24.10
2023-03-02T07:35:59.304Z,24.13
2023-03-02T07:36:58.891Z,24.16
2023-03-02T07:37:58.954Z,24.22
2023-03-02T07:38:58.981Z,24.25
2023-03-02T07:40:00.710Z,24.28
2023-03-02T07:40:59.246Z,24.33
2023-03-02T07:41:59.108Z,24.38
2023-03-02T07:42:59.152Z,24.44
2023-03-02T07:43:59.112Z,24.49
2023-03-02T07:44:59.153Z,24.55
2023-03-02T07:45:59.686Z,24.63
2023-03-02T07:46:59.133Z,24.67
2023-03-02T07:47:59.149Z,24.72
2023-03-02T07:48:59.188Z,24.79
2023-03-02T07:49:59.228Z,24.88
2023-03-02T07:50:59.250Z,24.95
2023-03-02T07:51:59.417Z,24.99
2023-03-02T07:53:00.062Z,25.06
2023-03-02T08:06:59.479Z,25.77
2023-03-02T08:07:59.450Z,25.77
2023-03-02T08:08:59.459Z,25.80
2023-03-02T08:09:59.430Z,25.83
2023-03-02T08:10:59.404Z,25.86
2023-03-02T08:11:59.433Z,25.89
2023-03-02T08:12:59.347Z,25.92
2023-03-02T08:13:59.372Z,25.92
2023-03-02T08:14:59.341Z,25.96
2023-03-02T08:15:59.904Z,25.99
2023-03-02T08:16:59.285Z,26.03
2023-03-02T08:17:59.308Z,26.05
2023-03-02T08:19:00.021Z,26.09
2023-03-02T08:19:59.371Z,26.08
2023-03-02T08:20:59.390Z,26.08
2023-03-02T08:21:59.410Z,26.08
2023-03-02T08:22:59.419Z,26.08
2023-03-02T08:23:59.545Z,26.10
2023-03-02T08:24:59.514Z,26.11
2023-03-02T08:25:59.573Z,26.12
2023-03-02T08:26:59.552Z,26.14
2023-03-02T08:27:59.642Z,26.18
2023-03-02T08:28:59.651Z,26.22
2023-03-02T08:29:59.645Z,26.25
2023-03-02T08:30:59.765Z,26.26
2023-03-02T08:31:59.877Z,26.31
2023-03-02T08:33:03.833Z,26.31
2023-03-02T08:34:00.719Z,26.30
2023-03-02T08:34:59.688Z,26.29
2023-03-02T08:35:59.663Z,26.31
2023-03-02T08:36:59.952Z,26.31
2023-03-02T08:37:59.531Z,26.30
2023-03-02T08:38:59.611Z,26.31
2023-03-02T08:39:59.455Z,26.27
2023-03-02T08:40:59.468Z,26.16
2023-03-02T08:41:59.420Z,26.08
2023-03-02T08:42:59.411Z,26.03
2023-03-02T08:43:59.403Z,26.00
2023-03-02T08:44:59.333Z,25.99
2023-03-02T08:45:59.384Z,26.02
2023-03-02T08:46:59.771Z,26.00
2023-03-02T08:47:59.257Z,26.02
2023-03-02T08:48:59.263Z,26.03
2023-03-02T08:49:59.183Z,26.05
2023-03-02T08:50:59.178Z,26.05
2023-03-02T08:51:59.291Z,26.06
2023-03-02T08:52:59.144Z,26.07
2023-03-02T08:53:59.122Z,26.08
2023-03-02T08:54:59.119Z,26.10
2023-03-02T08:55:59.086Z,26.13
2023-03-02T08:56:59.281Z,26.16
2023-03-02T08:57:59.066Z,26.18
2023-03-02T08:58:59.007Z,26.20
2023-03-02T08:59:59.038Z,26.23
2023-03-02T09:00:58.997Z,26.26
2023-03-02T09:01:59.289Z,26.29
2023-03-02T09:02:58.967Z,26.29
2023-03-02T09:03:58.995Z,26.32
2023-03-02T09:04:59.052Z,26.34
2023-03-02T09:05:59.008Z,26.33
2023-03-02T09:06:59.298Z,26.33
2023-03-02T09:07:58.989Z,26.35
2023-03-02T09:08:59.087Z,26.36
2023-03-02T09:09:58.991Z,26.40
2023-03-02T09:10:59.008Z,26.42
2023-03-02T09:11:59.010Z,26.42
2023-03-02T09:12:59.064Z,26.43
2023-03-02T09:13:59.027Z,26.46
2023-03-02T09:14:59.071Z,26.50
2023-03-02T09:15:59.113Z,26.50
2023-03-02T09:16:59.306Z,26.51
2023-03-02T09:17:59.165Z,26.53
2023-03-02T09:18:59.203Z,26.53
2023-03-02T09:19:59.257Z,26.54
2023-03-02T09:20:59.273Z,26.56
2023-03-02T09:21:59.278Z,26.56
2023-03-02T09:22:59.325Z,26.58
2023-03-02T09:23:59.437Z,26.62
2023-03-02T09:24:59.387Z,26.63
2023-03-02T09:25:59.421Z,26.63
2023-03-02T09:26:59.833Z,26.63
2023-03-02T09:27:59.789Z,26.66
2023-03-02T09:28:59.861Z,26.64
2023-03-02T09:29:59.521Z,26.65
2023-03-02T09:30:59.500Z,26.67
2023-03-02T09:31:59.949Z,26.70
2023-03-02T09:32:59.682Z,26.73
2023-03-02T09:33:59.578Z,26.73
2023-03-02T09:34:59.556Z,26.72
2023-03-02T09:36:59.735Z,26.66
2023-03-02T09:37:59.691Z,26.62
2023-03-02T09:38:59.684Z,26.61
2023-03-02T09:39:59.710Z,26.61
2023-03-02T09:40:59.724Z,26.48
2023-03-02T09:41:59.747Z,26.26
2023-03-02T09:42:59.745Z,26.05
2023-03-02T09:44:00.223Z,25.92
2023-03-02T09:44:59.767Z,25.87
2023-03-02T09:45:59.824Z,25.82
2023-03-02T09:46:59.864Z,25.80
2023-03-02T09:47:59.849Z,25.80
2023-03-02T09:49:00.756Z,25.73
2023-03-02T09:49:59.900Z,25.69
2023-03-02T09:51:00.005Z,25.73
2023-03-02T09:52:00.354Z,25.61
2023-03-02T09:53:00.077Z,25.43
2023-03-02T09:54:00.041Z,25.40
2023-03-02T09:55:00.023Z,25.42
2023-03-02T09:56:00.190Z,25.45
2023-03-02T09:57:00.444Z,25.46
2023-03-02T09:58:00.121Z,25.49
2023-03-02T09:59:00.199Z,25.53
2023-03-02T10:00:09.487Z,25.57
2023-03-02T10:01:01.189Z,25.62
2023-03-02T10:02:00.288Z,25.68
2023-03-02T10:03:11.434Z,25.72
2023-03-02T10:04:01.282Z,25.76
2023-03-02T10:05:00.141Z,25.73
2023-03-02T10:06:01.176Z,25.66
2023-03-02T10:07:00.626Z,25.43
2023-03-02T10:08:00.344Z,25.26
2023-03-02T10:09:00.186Z,24.98
2023-03-02T10:10:00.031Z,24.64
2023-03-02T10:11:00.072Z,24.45
2023-03-02T10:12:00.031Z,24.42
2023-03-02T10:13:00.038Z,24.51
2023-03-02T10:14:00.249Z,24.68
2023-03-02T10:15:00.186Z,24.84
2023-03-02T10:16:00.184Z,24.94
2023-03-02T10:17:00.116Z,25.04
2023-03-02T10:17:59.958Z,25.14
2023-03-02T10:19:00.143Z,25.27
2023-03-02T10:20:00.056Z,25.34
2023-03-02T10:21:00.134Z,25.35
2023-03-02T10:22:00.776Z,25.37
2023-03-02T10:22:59.892Z,25.41
2023-03-02T10:23:59.895Z,25.44
2023-03-02T10:24:59.866Z,25.53
2023-03-02T10:25:59.829Z,25.61
2023-03-02T10:26:59.810Z,25.58
2023-03-02T10:27:59.817Z,25.60
2023-03-02T10:28:59.888Z,25.64
2023-03-02T10:29:59.766Z,25.68
2023-03-02T10:30:59.734Z,25.73
2023-03-02T10:31:59.918Z,25.79
2023-03-02T10:32:59.709Z,25.83
2023-03-02T10:33:59.646Z,25.76
2023-03-02T10:34:59.665Z,25.68
2023-03-02T10:35:59.584Z,25.65
2023-03-02T10:36:59.588Z,25.68
2023-03-02T10:37:59.544Z,25.75
2023-03-02T10:38:59.510Z,25.76
2023-03-02T10:39:59.521Z,25.74
2023-03-02T10:40:59.476Z,25.69
2023-03-02T10:41:59.552Z,25.69
2023-03-02T10:42:59.858Z,25.71
2023-03-02T10:43:59.400Z,25.74
2023-03-02T10:44:59.425Z,25.76
2023-03-02T10:45:59.483Z,25.77
2023-03-02T10:46:59.297Z,25.80
2023-03-02T10:47:59.261Z,25.82
2023-03-02T10:48:59.281Z,25.88
2023-03-02T10:49:59.255Z,25.93
2023-03-02T10:50:59.287Z,26.00
2023-03-02T10:51:59.242Z,26.06
2023-03-02T10:53:01.488Z,26.12
2023-03-02T10:53:59.171Z,26.16
2023-03-02T10:54:59.150Z,26.22
2023-03-02T10:55:59.087Z,26.24
2023-03-02T10:56:59.065Z,26.25
2023-03-02T10:57:59.337Z,26.26
2023-03-02T10:58:58.957Z,26.25
2023-03-02T10:59:58.934Z,26.27
2023-03-02T11:00:58.914Z,26.28
2023-03-02T11:01:58.914Z,26.33
2023-03-02T11:02:58.829Z,26.38
2023-03-02T11:03:58.802Z,26.44
2023-03-02T11:04:58.896Z,26.48
2023-03-02T11:05:58.770Z,26.53
2023-03-02T11:06:58.686Z,26.58
2023-03-02T11:07:58.650Z,26.63
2023-03-02T11:08:58.613Z,26.65
2023-03-02T11:09:58.567Z,26.69
2023-03-02T11:11:00.887Z,26.71
2023-03-02T11:11:58.502Z,26.72
2023-03-02T11:12:58.477Z,26.75
2023-03-02T11:13:58.392Z,26.77
2023-03-02T11:14:58.373Z,26.77
2023-03-02T11:15:58.354Z,26.79
2023-03-02T11:16:58.236Z,26.82
2023-03-02T11:17:58.357Z,26.83
2023-03-02T11:18:58.193Z,26.85
2023-03-02T11:19:58.120Z,26.85
2023-03-02T11:20:58.110Z,26.85
2023-03-02T11:21:58.040Z,26.86
2023-03-02T11:22:58.020Z,26.89
2023-03-02T11:23:57.933Z,26.89
2023-03-02T11:24:57.898Z,26.88
2023-03-02T11:25:57.855Z,26.90
2023-03-02T11:26:57.839Z,26.90
2023-03-02T11:27:57.745Z,26.88
2023-03-02T11:28:57.704Z,26.89
2023-03-02T11:29:57.662Z,26.91
2023-03-02T11:30:57.674Z,26.92
2023-03-02T11:31:57.655Z,26.94
2023-03-02T11:32:58.398Z,26.95
2023-03-02T11:34:01.936Z,26.97
2023-03-02T11:34:58.497Z,26.97
2023-03-02T11:35:57.425Z,26.95
2023-03-02T11:36:57.379Z,26.95
2023-03-02T11:37:57.329Z,26.93
2023-03-02T11:38:57.232Z,26.92
2023-03-02T11:39:57.232Z,26.90
2023-03-02T11:40:57.186Z,26.90
2023-03-02T11:41:57.200Z,26.89
2023-03-02T11:42:57.101Z,26.89
2023-03-02T11:43:57.030Z,26.86
2023-03-02T11:44:56.999Z,26.87
2023-03-02T11:45:57.965Z,26.87
2023-03-02T11:46:57.486Z,26.86
2023-03-02T11:48:02.582Z,26.88
2023-03-02T11:48:58.426Z,26.90
2023-03-02T11:49:56.975Z,26.91
2023-03-02T11:50:56.810Z,26.90
2023-03-02T11:51:59.002Z,26.91
2023-03-02T11:52:58.167Z,26.91
2023-03-02T11:53:56.893Z,26.93
2023-03-02T11:54:56.822Z,26.96
2023-03-02T11:55:56.627Z,26.99
2023-03-02T11:56:56.626Z,26.98
2023-03-02T11:57:56.704Z,27.00
2023-03-02T11:58:56.558Z,27.02
2023-03-02T11:59:56.554Z,27.02
2023-03-02T12:00:56.543Z,27.03
2023-03-02T12:01:56.509Z,27.04
2023-03-02T12:02:56.865Z,27.04
2023-03-02T12:03:56.460Z,27.03
2023-03-02T12:04:56.469Z,27.02
2023-03-02T12:05:56.428Z,27.02
2023-03-02T12:06:56.433Z,26.98
2023-03-02T12:07:57.390Z,26.99
2023-03-02T12:08:56.470Z,26.98
2023-03-02T12:09:56.429Z,26.96
2023-03-02T12:10:56.409Z,26.95
2023-03-02T12:11:56.871Z,26.94
2023-03-02T12:12:57.295Z,26.91
2023-03-02T12:13:57.010Z,26.94
2023-03-02T12:14:56.449Z,26.98
2023-03-02T12:15:56.524Z,26.96
2023-03-02T12:16:56.437Z,26.93
2023-03-02T12:17:56.416Z,26.91
2023-03-02T12:18:56.359Z,26.90
2023-03-02T12:19:56.348Z,26.89
2023-03-02T12:20:56.338Z,26.87
2023-03-02T12:21:56.350Z,26.85
2023-03-02T12:22:56.296Z,26.80
2023-03-02T12:23:56.392Z,26.78
2023-03-02T12:24:56.363Z,26.69
2023-03-02T12:25:56.335Z,26.29
2023-03-02T12:26:56.318Z,26.08
2023-03-02T12:27:56.314Z,25.95
2023-03-02T12:28:57.775Z,25.91
2023-03-02T12:29:56.353Z,25.66
2023-03-02T12:30:56.425Z,25.53
2023-03-02T12:31:56.680Z,25.29
2023-03-02T12:32:56.459Z,24.90
2023-03-02T12:33:57.170Z,24.12
2023-03-02T12:34:56.549Z,23.81
2023-03-02T12:35:56.656Z,23.33
2023-03-02T12:36:56.701Z,23.09
2023-03-02T12:37:56.935Z,22.85
2023-03-02T12:38:56.875Z,22.68
2023-03-02T12:39:56.917Z,22.49
2023-03-02T12:40:56.983Z,22.52
2023-03-02T12:41:57.135Z,22.50
2023-03-02T12:42:57.206Z,22.65
2023-03-02T12:43:57.927Z,22.74
2023-03-02T12:44:57.331Z,22.85
2023-03-02T12:45:57.414Z,22.82
2023-03-02T12:46:57.480Z,22.72
2023-03-02T12:47:57.763Z,22.50
2023-03-02T12:48:57.813Z,22.45
2023-03-02T12:49:57.766Z,22.46
2023-03-02T12:50:57.868Z,22.59
2023-03-02T12:51:58.082Z,22.67
2023-03-02T12:52:57.943Z,22.81
2023-03-02T12:53:58.032Z,22.89
2023-03-02T12:54:58.067Z,22.86
2023-03-02T12:55:58.163Z,22.93
2023-03-02T12:56:58.211Z,23.04
2023-03-02T12:57:58.292Z,23.03
2023-03-02T12:58:58.392Z,22.96
2023-03-02T12:59:58.402Z,22.94
2023-03-02T13:00:58.489Z,22.77
2023-03-02T13:01:58.515Z,22.85
2023-03-02T13:02:58.623Z,22.87
2023-03-02T13:03:58.653Z,22.79
2023-03-02T13:04:58.651Z,22.44
2023-03-02T13:05:58.752Z,22.24
2023-03-02T13:06:58.870Z,22.02
2023-03-02T13:07:58.939Z,21.65
2023-03-02T13:08:59.133Z,21.57
2023-03-02T13:09:59.206Z,21.68
2023-03-02T13:10:59.278Z,21.67
2023-03-02T13:11:59.359Z,21.85
2023-03-02T13:12:59.479Z,21.81
2023-03-02T13:13:59.545Z,21.59
2023-03-02T13:14:59.628Z,21.35
2023-03-02T13:15:59.732Z,21.32
2023-03-02T13:16:59.863Z,21.14
2023-03-02T13:17:59.929Z,21.22
2023-03-02T13:19:00.005Z,21.05
2023-03-02T13:20:00.089Z,21.04
2023-03-02T13:21:00.184Z,21.18
2023-03-02T13:22:00.321Z,21.39
2023-03-02T13:37:01.281Z,23.39
2023-03-02T13:38:01.394Z,23.49
2023-03-02T13:39:01.367Z,23.57
2023-03-02T13:40:01.456Z,23.64
2023-03-02T13:41:01.440Z,23.71
2023-03-02T13:49:10.277Z,24.13
2023-03-02T13:51:01.582Z,24.18
2023-03-02T13:52:01.602Z,24.23
2023-03-02T15:28:06.470Z,24.78
2023-03-02T15:39:06.300Z,24.76
2023-03-02T15:40:06.353Z,24.76
2023-03-02T15:41:06.347Z,24.75
2023-03-02T15:42:06.478Z,24.75
2023-03-02T15:43:06.435Z,24.75
2023-03-02T15:44:06.505Z,24.75
2023-03-02T15:45:06.513Z,24.74
2023-03-02T15:46:06.577Z,24.75
2023-03-02T15:47:06.656Z,24.75
2023-03-02T15:48:06.678Z,24.75
2023-03-02T15:49:06.712Z,24.74
2023-03-02T15:50:06.774Z,24.74
2023-03-02T15:51:06.792Z,24.76
2023-03-02T15:52:06.818Z,24.75
2023-03-02T15:53:06.890Z,24.75
2023-03-02T15:54:06.839Z,24.74
2023-03-02T15:55:06.907Z,24.74
2023-03-02T15:56:06.948Z,24.74
2023-03-02T15:57:07.011Z,24.72
2023-03-02T15:58:07.059Z,24.73
2023-03-02T15:59:07.039Z,24.73
2023-03-02T16:00:07.063Z,24.73
2023-03-02T16:01:07.112Z,24.73
2023-03-02T16:02:07.140Z,24.73
2023-03-02T16:03:07.183Z,24.73
2023-03-02T16:04:07.183Z,24.72
2023-03-02T16:05:07.489Z,24.73
2023-03-02T16:06:07.187Z,24.73
2023-03-02T16:07:07.169Z,24.73
2023-03-02T16:08:07.204Z,24.72
2023-03-02T16:09:07.215Z,24.73
2023-03-02T16:10:07.195Z,24.73
2023-03-02T16:11:07.315Z,24.71